Time;durP1;ratioP1;P1;durP2;ratioP2;P2;SDS_P1;SDS_P2;PMS_P1;PMS_P2;Temp;Humidity;BMP_temperature;BMP_pressure;BME280_temperature;BME280_humidity;BME280_pressure;Samples;Min_cycle;Max_cycle;Signal;HPM_P1;HPM_P2
2023/10/15 00:01:35;;;;;;;0.50;0.50;;;;;;;11.80;100.00;97852.28;4681828;30;20060;-78
2023/10/15 00:04:04;;;;;;;0.50;0.50;;;;;;;11.83;100.00;97857.16;4667546;30;20059;-79
2023/10/15 00:06:31;;;;;;;0.50;0.50;;;;;;;11.76;100.00;97851.25;4713037;30;20057;-78
2023/10/15 00:08:59;;;;;;;0.50;0.50;;;;;;;11.74;100.00;97850.72;4701305;30;20509;-78
2023/10/15 00:11:30;;;;;;;0.50;0.50;;;;;;;11.68;100.00;97855.34;4751774;30;20062;-79
2023/10/15 00:14:08;;;;;;;0.52;0.52;;;;;;;11.74;100.00;97856.13;4737863;30;20051;-78
2023/10/15 00:16:36;;;;;;;0.50;0.50;;;;;;;11.71;100.00;97844.78;4736687;30;20093;-79
2023/10/15 00:19:09;;;;;;;0.50;0.50;;;;;;;11.61;100.00;97844.84;4736629;30;20092;-79
2023/10/15 00:21:38;;;;;;;0.57;0.57;;;;;;;11.59;100.00;97849.72;4723021;30;20085;-79
2023/10/15 00:24:07;;;;;;;0.50;0.50;;;;;;;11.60;100.00;97850.53;4722430;30;20133;-79
2023/10/15 00:26:35;;;;;;;0.60;0.60;;;;;;;11.58;100.00;97850.00;4751356;30;20077;-78
2023/10/15 00:29:07;;;;;;;0.60;0.60;;;;;;;11.55;100.00;97845.97;4722172;30;20083;-80
2023/10/15 00:31:38;;;;;;;0.60;0.60;;;;;;;11.52;100.00;97851.94;4737978;30;20051;-80
2023/10/15 00:34:12;;;;;;;0.60;0.60;;;;;;;11.46;100.00;97853.03;4736956;30;20055;-78
2023/10/15 00:36:43;;;;;;;0.50;0.50;;;;;;;11.55;100.00;97848.66;4737215;30;20465;-79
2023/10/15 00:39:20;;;;;;;0.55;0.55;;;;;;;11.60;100.00;97827.03;4736978;30;20062;-79
2023/10/15 00:41:53;;;;;;;0.50;0.50;;;;;;;11.57;100.00;97834.84;4733653;30;20059;-78
2023/10/15 00:44:21;;;;;;;0.60;0.60;;;;;;;11.49;100.00;97831.69;4733478;30;20121;-78
2023/10/15 00:46:54;;;;;;;0.52;0.52;;;;;;;11.50;100.00;97840.59;4733325;30;20063;-79
2023/10/15 00:49:25;;;;;;;0.60;0.60;;;;;;;11.52;100.00;97827.63;4747999;30;20433;-79
2023/10/15 00:51:52;;;;;;;0.50;0.50;;;;;;;11.56;100.00;97831.34;4747862;30;20097;-79
2023/10/15 00:54:21;;;;;;;0.60;0.60;;;;;;;11.54;100.00;97828.13;4748214;30;20056;-79
2023/10/15 00:57:25;;;;;;;0.50;0.50;;;;;;;11.51;100.00;97836.78;4745872;30;20641;-79
2023/10/15 00:59:53;;;;;;;0.60;0.60;;;;;;;11.52;100.00;97835.72;4720196;30;20061;-79
2023/10/15 01:02:22;;;;;;;0.60;0.60;;;;;;;11.48;100.00;97835.47;4718291;30;20057;-79
2023/10/15 01:04:51;;;;;;;0.50;0.50;;;;;;;11.52;100.00;97841.13;4702775;30;20053;-79
2023/10/15 01:10:36;;;;;;;0.60;0.60;;;;;;;11.48;100.00;97831.94;4736146;30;20059;-78
2023/10/15 01:13:16;;;;;;;0.60;0.60;;;;;;;11.53;100.00;97818.41;4736241;30;20051;-78
2023/10/15 01:15:46;;;;;;;0.50;0.50;;;;;;;11.51;100.00;97817.88;4737773;30;20150;-77
2023/10/15 01:18:14;;;;;;;0.50;0.50;;;;;;;11.56;100.00;97831.34;4736173;30;20089;-78
2023/10/15 01:20:45;;;;;;;0.50;0.50;;;;;;;11.61;100.00;97825.91;4765488;30;20504;-77
2023/10/15 01:23:28;;;;;;;0.50;0.50;;;;;;;11.58;100.00;97825.69;4722067;30;20109;-78
2023/10/15 01:25:59;;;;;;;0.50;0.50;;;;;;;11.59;100.00;97824.59;4750772;30;20052;-78
2023/10/15 01:28:46;;;;;;;0.50;0.50;;;;;;;11.57;100.00;97819.47;4750992;30;20060;-78
2023/10/15 01:31:15;;;;;;;0.50;0.50;;;;;;;11.56;100.00;97823.25;4765520;30;20060;-78
2023/10/15 01:33:50;;;;;;;0.60;0.60;;;;;;;11.57;100.00;97822.19;4765268;30;20121;-78
2023/10/15 01:36:38;;;;;;;0.60;0.60;;;;;;;11.62;100.00;97803.22;4751774;30;20059;-79
2023/10/15 01:39:12;;;;;;;0.50;0.50;;;;;;;11.53;100.00;97809.50;4747523;30;20117;-79
2023/10/15 01:41:42;;;;;;;0.60;0.60;;;;;;;11.57;100.00;97811.38;4765406;30;20480;-78
2023/10/15 01:44:10;;;;;;;0.50;0.50;;;;;;;11.62;100.00;97814.03;4750753;30;20590;-78
2023/10/15 01:49:38;;;;;;;0.50;0.50;;;;;;;11.78;100.00;97805.81;4760935;30;20138;-78
2023/10/15 01:52:06;;;;;;;0.50;0.50;;;;;;;11.81;100.00;97816.06;4771465;30;20073;-78
2023/10/15 01:54:36;;;;;;;0.50;0.50;;;;;;;11.89;100.00;97819.00;4756847;30;20205;-79
2023/10/15 01:57:07;;;;;;;0.50;0.50;;;;;;;11.91;100.00;97824.13;4756572;30;20506;-78
2023/10/15 01:59:47;;;;;;;0.50;0.50;;;;;;;11.99;100.00;97837.03;4742610;30;20055;-78
2023/10/15 02:02:18;;;;;;;0.60;0.60;;;;;;;12.04;100.00;97819.97;4735914;30;20053;-78
2023/10/15 02:04:45;;;;;;;0.60;0.60;;;;;;;12.03;100.00;97813.78;4735845;30;20071;-78
2023/10/15 02:07:17;;;;;;;0.40;0.40;;;;;;;12.01;100.00;97831.38;4750423;30;20070;-78
2023/10/15 02:09:44;;;;;;;0.50;0.50;;;;;;;12.02;100.00;97819.44;4750516;30;20063;-78
2023/10/15 02:12:19;;;;;;;0.57;0.57;;;;;;;11.98;100.00;97816.53;4735677;30;20055;-78
2023/10/15 02:14:51;;;;;;;0.50;0.50;;;;;;;12.00;100.00;97811.63;4735632;30;20048;-77
2023/10/15 02:17:19;;;;;;;0.60;0.60;;;;;;;12.01;100.00;97817.84;4750422;30;20060;-77
2023/10/15 02:19:47;;;;;;;0.50;0.50;;;;;;;12.01;100.00;97809.75;4735372;30;20556;-77
2023/10/15 02:22:21;;;;;;;0.50;0.50;;;;;;;12.07;100.00;97817.50;4735405;30;20060;-77
2023/10/15 02:24:48;;;;;;;0.40;0.40;;;;;;;12.06;100.00;97815.91;4722167;30;20069;-77
2023/10/15 02:27:21;;;;;;;0.50;0.50;;;;;;;12.09;100.00;97815.34;4697836;30;20053;-79
2023/10/15 02:29:52;;;;;;;0.50;0.50;;;;;;;12.10;100.00;97825.06;4697755;30;20061;-79
2023/10/15 02:34:57;;;;;;;0.50;0.50;;;;;;;12.11;100.00;97825.88;4686958;30;20049;-79
2023/10/15 02:37:27;;;;;;;0.50;0.50;;;;;;;12.13;100.00;97815.59;4714968;30;20496;-78
2023/10/15 02:39:59;;;;;;;0.60;0.60;;;;;;;12.14;100.00;97819.91;4686323;30;20149;-77
2023/10/15 02:42:35;;;;;;;0.40;0.40;;;;;;;12.13;100.00;97818.28;4714940;30;20395;-78
2023/10/15 02:45:06;;;;;;;0.50;0.50;;;;;;;12.13;100.00;97818.28;4714687;30;20086;-78
2023/10/15 02:47:42;;;;;;;0.50;0.50;;;;;;;12.16;100.00;97822.34;4702104;30;20194;-77
2023/10/15 02:50:16;;;;;;;0.50;0.50;;;;;;;12.14;100.00;97819.91;4685854;30;20097;-80
2023/10/15 02:52:48;;;;;;;0.60;0.60;;;;;;;12.12;100.00;97817.47;4688135;30;20064;-79
2023/10/15 02:55:26;;;;;;;0.50;0.50;;;;;;;12.11;100.00;97815.88;4739001;30;20519;-78
2023/10/15 02:58:01;;;;;;;0.50;0.50;;;;;;;12.12;100.00;97812.06;4738224;30;20422;-79
2023/10/15 03:00:29;;;;;;;0.50;0.50;;;;;;;12.11;100.00;97815.88;4739026;30;20055;-79
2023/10/15 03:03:15;;;;;;;0.50;0.50;;;;;;;12.07;100.00;97814.81;4723473;30;20075;-78
2023/10/15 03:05:46;;;;;;;0.60;0.60;;;;;;;12.11;100.00;97820.47;4740268;30;20058;-78
2023/10/15 03:08:30;;;;;;;0.55;0.55;;;;;;;12.11;100.00;97815.88;4738979;30;20159;-79
2023/10/15 03:11:21;;;;;;;0.50;0.50;;;;;;;12.13;100.00;97810.97;4756573;30;20134;-78
2023/10/15 03:14:00;;;;;;;0.50;0.50;;;;;;;12.13;100.00;97815.59;4753775;30;20055;-79
2023/10/15 03:16:31;;;;;;;0.47;0.47;;;;;;;12.11;100.00;97817.75;4738579;30;20146;-79
2023/10/15 03:19:18;;;;;;;0.50;0.50;;;;;;;12.16;100.00;97825.03;4765684;30;20565;-78
2023/10/15 03:21:46;;;;;;;0.50;0.50;;;;;;;12.13;100.00;97807.47;4752200;30;20063;-77
2023/10/15 03:24:14;;;;;;;0.50;0.50;;;;;;;12.13;100.00;97818.28;4752474;30;20055;-79
2023/10/15 03:26:47;;;;;;;0.50;0.50;;;;;;;12.14;100.00;97812.59;4752268;30;20176;-78
2023/10/15 03:29:15;;;;;;;0.50;0.50;;;;;;;12.13;100.00;97802.06;4741166;30;20055;-79
2023/10/15 03:31:54;;;;;;;0.50;0.50;;;;;;;12.14;100.00;97807.19;4755657;30;20055;-79
2023/10/15 03:34:22;;;;;;;0.50;0.50;;;;;;;12.15;100.00;97802.56;4755442;30;20328;-77
2023/10/15 03:36:51;;;;;;;0.50;0.50;;;;;;;12.17;100.00;97802.28;4755220;29;20066;-78
2023/10/15 03:42:09;;;;;;;0.50;0.50;;;;;;;12.17;100.00;97802.28;4756315;30;20163;-78
2023/10/15 03:44:45;;;;;;;0.60;0.60;;;;;;;12.17;100.00;97802.28;4756516;30;20051;-79
2023/10/15 03:47:15;;;;;;;0.50;0.50;;;;;;;12.16;100.00;97808.81;4754729;30;20615;-79
2023/10/15 03:49:46;;;;;;;0.50;0.50;;;;;;;12.21;100.00;97809.56;4740657;30;20501;-79
2023/10/15 03:52:14;;;;;;;0.57;0.57;;;;;;;12.24;100.00;97808.19;4748989;30;20235;-79
2023/10/15 03:54:50;;;;;;;0.50;0.50;;;;;;;12.25;100.00;97809.78;4768590;30;20167;-79
2023/10/15 03:57:27;;;;;;;0.60;0.60;;;;;;;12.27;100.00;97799.50;4753186;30;20146;-79
2023/10/15 03:59:57;;;;;;;0.50;0.50;;;;;;;12.28;100.00;97810.03;4767442;30;20047;-79
2023/10/15 04:05:01;;;;;;;0.50;0.50;;;;;;;12.27;100.00;97789.47;4754570;30;20051;-78
2023/10/15 04:07:31;;;;;;;0.50;0.50;;;;;;;12.24;100.00;97800.06;4769337;30;20073;-78
2023/10/15 04:10:04;;;;;;;0.60;0.60;;;;;;;12.28;100.00;97801.09;4739897;30;20074;-78
2023/10/15 04:12:34;;;;;;;0.50;0.50;;;;;;;12.25;100.00;97802.47;4754636;30;20514;-78
2023/10/15 04:15:12;;;;;;;0.50;0.50;;;;;;;12.25;100.00;97804.38;4730505;30;20091;-78
2023/10/15 04:17:39;;;;;;;0.50;0.50;;;;;;;12.29;100.00;97813.56;4716275;30;20061;-79
2023/10/15 04:20:09;;;;;;;0.45;0.45;;;;;;;12.30;100.00;97810.53;4730451;30;20053;-78
2023/10/15 04:22:51;;;;;;;0.55;0.55;;;;;;;12.30;100.00;97815.97;4717431;30;20052;-78
2023/10/15 04:25:26;;;;;;;0.55;0.55;;;;;;;12.30;100.00;97820.56;4729414;30;20726;-77
2023/10/15 04:27:54;;;;;;;0.60;0.60;;;;;;;12.31;100.00;97831.13;4732393;30;20198;-77
2023/10/15 04:30:26;;;;;;;0.50;0.50;;;;;;;12.29;100.00;97819.75;4730413;30;20517;-78
2023/10/15 04:32:57;;;;;;;0.45;0.45;;;;;;;12.26;100.00;97822.25;4730393;30;20621;-78
2023/10/15 04:35:32;;;;;;;0.50;0.50;;;;;;;12.23;100.00;97825.50;4711266;30;20053;-79
2023/10/15 04:38:04;;;;;;;0.50;0.50;;;;;;;12.18;100.00;97831.78;4733145;30;20052;-78
2023/10/15 04:40:59;;;;;;;0.50;0.50;;;;;;;12.14;100.00;97836.13;4718945;30;20546;-78
2023/10/15 04:43:28;;;;;;;0.55;0.55;;;;;;;12.09;100.00;97842.38;4724076;30;20151;-80
2023/10/15 04:45:57;;;;;;;0.45;0.45;;;;;;;12.05;100.00;97838.63;4732816;30;20118;-79
2023/10/15 04:48:36;;;;;;;0.50;0.50;;;;;;;12.01;100.00;97864.63;4732684;30;20105;-79
2023/10/15 04:51:15;;;;;;;0.50;0.50;;;;;;;11.97;100.00;97858.16;4747409;30;20072;-79
2023/10/15 04:53:49;;;;;;;0.50;0.50;;;;;;;11.92;100.00;97860.88;4733398;30;20056;-78
2023/10/15 04:56:37;;;;;;;0.50;0.50;;;;;;;11.87;100.00;97853.63;4733408;30;20540;-79
2023/10/15 04:59:06;;;;;;;0.50;0.50;;;;;;;11.82;100.00;97872.53;4732732;30;20544;-79
2023/10/15 05:01:34;;;;;;;0.43;0.43;;;;;;;11.78;100.00;97854.47;4733255;30;20056;-78
2023/10/15 05:04:01;;;;;;;0.50;0.50;;;;;;;11.75;100.00;97857.72;4733330;30;20079;-78
2023/10/15 05:06:33;;;;;;;0.60;0.60;;;;;;;11.71;100.00;97865.59;4733235;30;20478;-78
2023/10/15 05:09:09;;;;;;;0.60;0.60;;;;;;;11.67;100.00;97861.81;4721154;30;20056;-79
2023/10/15 05:11:36;;;;;;;0.50;0.50;;;;;;;11.62;100.00;97853.75;4679790;30;20141;-79
2023/10/15 05:14:11;;;;;;;0.50;0.50;;;;;;;11.60;100.00;97854.03;4681403;30;20053;-80
2023/10/15 05:16:39;;;;;;;0.60;0.60;;;;;;;11.57;100.00;97854.59;4697599;30;20492;-79
2023/10/15 05:19:07;;;;;;;0.50;0.50;;;;;;;11.54;100.00;97855.13;4711683;30;20148;-79
2023/10/15 05:21:36;;;;;;;0.50;0.50;;;;;;;11.49;100.00;97853.31;4699491;30;20065;-80
2023/10/15 05:24:05;;;;;;;0.47;0.47;;;;;;;11.45;100.00;97864.94;4700832;30;20053;-78
2023/10/15 05:26:33;;;;;;;0.50;0.50;;;;;;;11.44;100.00;97866.00;4687032;30;20068;-81
2023/10/15 05:29:01;;;;;;;0.50;0.50;;;;;;;11.42;100.00;97865.47;4686618;30;20075;-78
2023/10/15 05:31:28;;;;;;;0.60;0.60;;;;;;;11.40;100.00;97871.16;4712995;30;20156;-78
2023/10/15 05:34:11;;;;;;;0.60;0.60;;;;;;;11.41;100.00;97858.47;4698517;30;20136;-78
2023/10/15 05:36:38;;;;;;;0.50;0.50;;;;;;;11.43;100.00;97861.69;4704464;30;20077;-78
2023/10/15 05:39:18;;;;;;;0.60;0.60;;;;;;;11.42;100.00;97865.47;4722390;30;20052;-78
2023/10/15 05:41:47;;;;;;;0.55;0.55;;;;;;;11.42;100.00;97876.28;4749391;30;20545;-79
2023/10/15 05:44:21;;;;;;;0.52;0.52;;;;;;;11.41;100.00;97866.56;4763422;30;20052;-81
2023/10/15 05:46:50;;;;;;;0.50;0.50;;;;;;;11.39;100.00;97864.13;4732868;30;20134;-81
2023/10/15 05:49:22;;;;;;;0.60;0.60;;;;;;;11.40;100.00;97859.56;4732885;30;20299;-81
2023/10/15 05:51:51;;;;;;;0.60;0.60;;;;;;;11.40;100.00;97864.97;4704724;30;20067;-80
2023/10/15 05:54:20;;;;;;;0.55;0.55;;;;;;;11.39;100.00;97866.81;4731447;30;20087;-80
2023/10/15 05:56:47;;;;;;;0.50;0.50;;;;;;;11.39;100.00;97856.03;4702014;30;20148;-81
2023/10/15 05:59:15;;;;;;;0.50;0.50;;;;;;;11.38;100.00;97862.53;4681556;30;20140;-82
2023/10/15 06:01:45;;;;;;;0.50;0.50;;;;;;;11.04;100.00;97859.72;4704081;30;20210;-82
2023/10/15 06:04:17;;;;;;;0.60;0.60;;;;;;;10.75;100.00;97851.41;4735589;30;20143;-82
2023/10/15 06:06:48;;;;;;;0.47;0.47;;;;;;;10.53;100.00;97849.84;4721070;30;20106;-79
2023/10/15 06:09:23;;;;;;;0.60;0.60;;;;;;;10.24;100.00;97860.34;4693379;30;20488;-82
2023/10/15 06:11:51;;;;;;;0.50;0.50;;;;;;;10.02;100.00;97854.41;4706914;30;20060;-82
2023/10/15 06:14:29;;;;;;;0.60;0.60;;;;;;;9.87;100.00;97841.72;4735065;30;20088;-83
2023/10/15 06:17:05;;;;;;;0.60;0.60;;;;;;;9.79;100.00;97864.63;4724446;30;20267;-81
2023/10/15 06:19:34;;;;;;;0.60;0.60;;;;;;;9.64;100.00;97869.97;4720426;30;20121;-81
2023/10/15 06:22:02;;;;;;;0.60;0.60;;;;;;;9.50;100.00;97878.56;4706298;30;20052;-83
2023/10/15 06:24:35;;;;;;;0.60;0.60;;;;;;;9.40;100.00;97889.31;4717925;30;20150;-80
2023/10/15 06:27:45;;;;;;;0.60;0.60;;;;;;;9.24;100.00;97898.38;4755227;30;20146;-84
2023/10/15 06:30:35;;;;;;;0.55;0.55;;;;;;;9.01;100.00;97897.72;4744496;30;20128;-82
2023/10/15 06:33:23;;;;;;;0.65;0.65;;;;;;;8.98;100.00;97908.22;4696157;30;20065;-81
2023/10/15 06:35:53;;;;;;;;;;;;;;;8.85;100.00;97907.59;4695040;30;20077;-80
2023/10/15 06:38:28;;;;;;;0.60;0.60;;;;;;;8.75;100.00;97918.31;4700686;30;20041;-80
2023/10/15 06:40:57;;;;;;;0.60;0.60;;;;;;;8.72;100.00;97910.75;4679911;30;20121;-78
2023/10/15 06:43:25;;;;;;;0.60;0.60;;;;;;;8.67;100.00;97908.03;4680040;30;20058;-79
2023/10/15 06:45:56;;;;;;;0.70;0.70;;;;;;;8.65;100.00;97902.91;4680404;30;20056;-80
2023/10/15 06:48:30;;;;;;;0.70;0.70;;;;;;;8.66;100.00;97909.13;4680107;30;20112;-79
2023/10/15 06:50:57;;;;;;;0.60;0.60;;;;;;;8.68;100.00;97897.03;4651110;30;20120;-79
2023/10/15 06:53:27;;;;;;;0.70;0.70;;;;;;;8.68;100.00;97915.03;4680439;30;20502;-78
2023/10/15 06:56:01;;;;;;;0.70;0.70;;;;;;;8.70;100.00;97923.66;4679987;30;20061;-79
2023/10/15 06:58:30;;;;;;;0.70;0.70;;;;;;;8.69;100.00;97922.03;4382205;30;9999680;-78
2023/10/15 07:00:59;;;;;;;0.63;0.63;;;;;;;8.66;100.00;97934.13;4705416;30;20302;-76
2023/10/15 07:03:29;;;;;;;0.60;0.60;;;;;;;8.60;100.00;97934.34;4702792;30;20610;-78
2023/10/15 07:05:57;;;;;;;0.60;0.60;;;;;;;8.60;100.00;97929.75;4717349;30;20048;-80
2023/10/15 07:08:25;;;;;;;0.70;0.70;;;;;;;8.68;100.00;97937.38;4718239;30;20055;-78
2023/10/15 07:10:59;;;;;;;0.70;0.70;;;;;;;8.72;100.00;97932.28;4732430;30;20441;-78
2023/10/15 07:13:30;;;;;;;0.70;0.70;;;;;;;8.72;100.00;97931.47;4732829;30;20559;-80
2023/10/15 07:16:01;;;;;;;0.60;0.60;;;;;;;8.68;100.00;97933.84;4732760;30;20139;-81
2023/10/15 07:18:32;;;;;;;0.70;0.70;;;;;;;8.64;100.00;97941.63;4725488;30;20060;-77
2023/10/15 07:21:02;;;;;;;0.63;0.63;;;;;;;8.65;100.00;97947.81;4716776;30;20090;-78
2023/10/15 07:23:37;;;;;;;0.60;0.60;;;;;;;8.57;100.00;97919.53;4718883;30;20147;-77
2023/10/15 07:26:11;;;;;;;0.70;0.70;;;;;;;8.69;100.00;97932.81;4746835;30;20058;-79
2023/10/15 07:28:56;;;;;;;0.65;0.65;;;;;;;8.69;100.00;97935.50;4734062;30;20067;-78
2023/10/15 07:31:42;;;;;;;0.70;0.70;;;;;;;8.76;100.00;97943.31;4719285;30;20497;-76
2023/10/15 07:34:24;;;;;;;0.70;0.70;;;;;;;8.80;100.00;97955.19;4732243;30;20064;-80
2023/10/15 07:37:03;;;;;;;0.70;0.70;;;;;;;8.79;100.00;97945.50;4716931;30;20595;-79
2023/10/15 07:39:37;;;;;;;0.60;0.60;;;;;;;8.78;100.00;97938.50;4731763;30;20137;-78
2023/10/15 07:42:23;;;;;;;0.70;0.70;;;;;;;8.81;100.00;97933.44;4701239;30;20092;-78
2023/10/15 07:45:26;;;;;;;0.60;0.60;;;;;;;8.80;100.00;97934.47;4717468;30;20052;-80
2023/10/15 07:48:22;;;;;;;0.70;0.70;;;;;;;8.84;100.00;97935.59;4698811;30;20478;-78
2023/10/15 07:55:10;;;;;;;0.70;0.70;;;;;;;8.80;100.00;97925.59;4747803;30;20685;-79
2023/10/15 08:02:29;;;;;;;0.70;0.70;;;;;;;8.90;100.00;97933.75;4748593;30;20159;-79
2023/10/15 08:05:14;;;;;;;0.70;0.70;;;;;;;8.98;100.00;97941.31;4748047;30;20052;-80
2023/10/15 08:07:54;;;;;;;0.70;0.70;;;;;;;9.03;100.00;97935.97;4746779;30;20348;-79
2023/10/15 08:10:43;;;;;;;0.70;0.70;;;;;;;9.05;99.73;97936.53;4746931;30;20067;-79
2023/10/15 08:14:19;;;;;;;0.70;0.70;;;;;;;9.11;100.00;97930.09;4748089;30;20074;-81
2023/10/15 08:17:11;;;;;;;0.70;0.70;;;;;;;9.12;99.50;97936.31;4701224;30;20060;-82
2023/10/15 08:20:24;;;;;;;0.70;0.70;;;;;;;9.18;99.02;97942.50;4719943;30;20065;-79
2023/10/15 08:23:44;;;;;;;0.70;0.70;;;;;;;9.16;98.33;97937.38;4715653;30;20501;-79
2023/10/15 08:26:43;;;;;;;0.70;0.70;;;;;;;9.16;98.96;97942.75;4730372;30;20060;-79
2023/10/15 08:29:39;;;;;;;0.60;0.60;;;;;;;9.14;99.15;97944.09;4684153;30;20073;-79
2023/10/15 08:32:57;;;;;;;0.70;0.70;;;;;;;9.06;97.80;97951.63;4669650;30;20061;-78
2023/10/15 08:36:07;;;;;;;0.70;0.70;;;;;;;9.01;96.94;97956.94;4671403;30;20074;-80
2023/10/15 08:39:10;;;;;;;0.70;0.70;;;;;;;8.94;95.39;97956.38;4588506;31;20081;-78
2023/10/15 08:42:13;;;;;;;0.60;0.60;;;;;;;8.89;95.96;97972.50;4562276;31;20160;-79
2023/10/15 08:49:14;;;;;;;0.70;0.70;;;;;;;8.89;97.68;97953.66;4594650;31;20071;-79
2023/10/15 08:52:40;;;;;;;0.70;0.70;;;;;;;8.86;98.31;97949.59;4607912;31;20067;-80
2023/10/15 08:57:16;;;;;;;0.60;0.60;;;;;;;8.74;98.75;97927.47;4609226;31;20563;-78
2023/10/15 09:01:01;;;;;;;0.70;0.70;;;;;;;8.96;99.30;97950.72;4576434;31;20120;-78
2023/10/15 09:08:17;;;;;;;0.70;0.70;;;;;;;8.99;100.00;97932.19;4577921;31;20472;-79
2023/10/15 09:11:12;;;;;;;0.63;0.63;;;;;;;9.13;100.00;97927.13;4604202;31;20075;-81
2023/10/15 09:13:58;;;;;;;0.60;0.60;;;;;;;9.17;100.00;97912.09;4577051;31;20151;-82
2023/10/15 09:16:52;;;;;;;0.60;0.60;;;;;;;9.30;100.00;97916.19;4593890;31;20071;-79
2023/10/15 09:19:34;;;;;;;0.68;0.68;;;;;;;9.43;100.00;97929.16;4607245;31;20096;-78
2023/10/15 09:22:21;;;;;;;0.60;0.60;;;;;;;9.43;99.98;97928.38;4630751;30;20579;-79
2023/10/15 09:25:08;;;;;;;0.60;0.60;;;;;;;9.39;99.86;97925.38;4622449;30;20060;-78
2023/10/15 09:27:53;;;;;;;0.55;0.55;;;;;;;9.36;99.16;97933.97;4638681;30;20092;-79
2023/10/15 09:30:35;;;;;;;0.70;0.70;;;;;;;9.27;98.73;97939.06;4624801;30;20138;-79
2023/10/15 09:33:17;;;;;;;0.68;0.68;;;;;;;9.24;99.04;97941.47;4625372;30;20066;-80
2023/10/15 09:35:51;;;;;;;0.60;0.60;;;;;;;9.22;100.00;97947.13;4640407;30;20067;-81
2023/10/15 09:38:53;;;;;;;0.60;0.60;;;;;;;9.18;100.00;97951.41;4636431;30;20484;-78
2023/10/15 09:41:26;;;;;;;0.60;0.60;;;;;;;9.17;100.00;97944.41;4625489;30;20059;-79
2023/10/15 09:44:24;;;;;;;0.68;0.68;;;;;;;9.18;100.00;97945.19;4658268;30;20058;-78
2023/10/15 09:47:59;;;;;;;0.57;0.57;;;;;;;9.23;100.00;97945.22;4668848;30;20092;-79
2023/10/15 09:50:38;;;;;;;0.70;0.70;;;;;;;9.19;100.00;97947.66;4659887;30;20070;-79
2023/10/15 09:53:39;;;;;;;0.70;0.70;;;;;;;9.20;100.00;97951.94;4640594;30;20058;-79
2023/10/15 09:56:50;;;;;;;0.60;0.60;;;;;;;9.25;100.00;97953.88;4652079;30;20577;-79
2023/10/15 09:59:38;;;;;;;0.70;0.70;;;;;;;9.36;100.00;97947.44;4694467;30;20822;-78
2023/10/15 10:02:46;;;;;;;0.70;0.70;;;;;;;9.46;100.00;97939.41;4706520;30;20103;-79
2023/10/15 10:05:49;;;;;;;0.70;0.70;;;;;;;9.54;99.94;97933.53;4698962;30;20315;-80
2023/10/15 10:09:36;;;;;;;0.70;0.70;;;;;;;9.65;99.68;97917.41;4714171;30;20067;-80
2023/10/15 10:12:32;;;;;;;0.70;0.70;;;;;;;9.85;99.51;97922.00;4718260;30;20065;-80
2023/10/15 10:16:06;;;;;;;0.70;0.70;;;;;;;9.90;98.61;97930.09;4704160;30;20603;-79
2023/10/15 10:18:40;;;;;;;0.70;0.70;;;;;;;9.75;98.36;97933.59;4686988;30;20065;-78
2023/10/15 10:21:16;;;;;;;0.60;0.60;;;;;;;9.70;98.34;97928.19;4659558;30;20092;-80
2023/10/15 10:23:50;;;;;;;0.60;0.60;;;;;;;9.74;99.22;97930.06;4687237;30;20065;-80
2023/10/15 10:26:19;;;;;;;0.60;0.60;;;;;;;9.76;99.71;97937.91;4659825;30;20054;-79
2023/10/15 10:29:06;;;;;;;0.70;0.70;;;;;;;9.75;99.18;97939.78;4384118;30;10000248;-77
2023/10/15 10:32:37;;;;;;;0.70;0.70;;;;;;;9.72;98.91;97939.50;4645705;30;20081;-80
2023/10/15 10:35:43;;;;;;;0.60;0.60;;;;;;;9.80;98.52;97933.63;4628364;30;20085;-79
2023/10/15 10:38:19;;;;;;;0.60;0.60;;;;;;;9.79;97.66;97934.69;4639308;30;20160;-79
2023/10/15 10:41:15;;;;;;;0.70;0.70;;;;;;;9.80;98.01;97922.00;4627443;30;20054;-79
2023/10/15 10:43:55;;;;;;;0.70;0.70;;;;;;;9.78;98.34;97933.06;4617805;30;20122;-79
2023/10/15 10:46:52;;;;;;;0.60;0.60;;;;;;;9.81;98.58;97937.91;4595183;31;20063;-78
2023/10/15 10:49:40;;;;;;;0.60;0.60;;;;;;;9.80;98.81;97952.47;4608771;31;20070;-78
2023/10/15 10:52:17;;;;;;;0.70;0.70;;;;;;;9.86;98.88;97945.22;4582313;31;20364;-79
2023/10/15 10:54:45;;;;;;;0.60;0.60;;;;;;;9.89;98.60;97941.97;4288474;31;9999699;-78
2023/10/15 10:57:18;;;;;;;0.60;0.60;;;;;;;9.93;98.32;97925.03;4602114;31;20055;-78
2023/10/15 10:59:49;;;;;;;0.60;0.60;;;;;;;9.98;98.23;97918.84;4609284;31;20098;-78
2023/10/15 11:02:20;;;;;;;0.60;0.60;;;;;;;10.01;98.28;97922.88;4608293;30;20157;-79
2023/10/15 11:05:11;;;;;;;0.70;0.70;;;;;;;9.98;98.64;97930.41;4656888;30;20143;-79
2023/10/15 11:07:41;;;;;;;0.60;0.60;;;;;;;10.06;98.37;97933.66;4670381;30;20077;-80
2023/10/15 11:10:13;;;;;;;0.70;0.70;;;;;;;10.13;98.12;97945.81;4644238;30;20080;-78
2023/10/15 11:12:46;;;;;;;0.63;0.63;;;;;;;10.20;96.86;97945.53;4678430;30;20066;-77
2023/10/15 11:15:20;;;;;;;0.60;0.60;;;;;;;10.24;96.21;97957.41;4649423;30;20152;-78
2023/10/15 11:17:57;;;;;;;0.70;0.70;;;;;;;10.27;96.25;97959.56;4672270;30;20575;-79
2023/10/15 11:20:41;;;;;;;0.70;0.70;;;;;;;10.27;96.12;97945.28;4639581;30;20055;-78
2023/10/15 11:23:10;;;;;;;0.60;0.60;;;;;;;10.27;95.90;97956.06;4652391;30;20051;-79
2023/10/15 11:25:42;;;;;;;0.60;0.60;;;;;;;10.26;95.84;97949.06;4653936;30;20670;-79
2023/10/15 11:28:16;;;;;;;0.60;0.60;;;;;;;10.24;96.01;97941.25;4652483;30;20056;-77
2023/10/15 11:30:46;;;;;;;0.60;0.60;;;;;;;10.22;95.84;97951.47;4619603;31;20523;-78
2023/10/15 11:33:17;;;;;;;0.70;0.70;;;;;;;10.27;96.00;97958.75;4592280;31;20541;-78
2023/10/15 11:35:48;;;;;;;0.70;0.70;;;;;;;10.40;95.10;97960.97;4606680;31;20210;-79
2023/10/15 11:38:20;;;;;;;0.68;0.68;;;;;;;10.59;94.16;97958.56;4587848;31;20199;-78
2023/10/15 11:40:54;;;;;;;0.70;0.70;;;;;;;10.53;92.98;97955.06;4597990;31;20087;-77
2023/10/15 11:43:32;;;;;;;0.60;0.60;;;;;;;10.49;92.77;97966.66;4632640;30;20059;-77
2023/10/15 11:46:07;;;;;;;0.70;0.70;;;;;;;10.49;92.77;97963.94;4623509;31;20067;-78
2023/10/15 11:48:37;;;;;;;;;;;;;;;10.47;92.56;97966.09;4610478;31;20067;-79
2023/10/15 11:51:14;;;;;;;0.60;0.60;;;;;;;10.45;92.56;97970.94;4602952;31;20088;-79
2023/10/15 11:53:42;;;;;;;0.77;0.77;;;;;;;10.70;91.90;97973.66;4571253;31;20061;-79
2023/10/15 11:56:16;;;;;;;0.70;0.70;;;;;;;11.07;89.94;97969.84;4595211;31;20624;-77
2023/10/15 11:58:45;;;;;;;0.70;0.70;;;;;;;11.09;89.22;97956.06;4615086;31;20064;-78
2023/10/15 12:01:15;;;;;;;0.50;0.50;;;;;;;10.96;89.04;97949.34;4609557;31;20237;-79
2023/10/15 12:03:45;;;;;;;0.60;0.60;;;;;;;10.71;89.47;97956.41;4658840;30;20463;-78
2023/10/15 12:06:16;;;;;;;0.60;0.60;;;;;;;10.45;89.05;97968.25;4634148;30;20050;-79
2023/10/15 12:08:59;;;;;;;0.60;0.60;;;;;;;10.30;89.84;97985.22;4662683;30;20147;-77
2023/10/15 12:11:33;;;;;;;0.60;0.60;;;;;;;10.25;90.60;97971.69;4652346;30;20054;-77
2023/10/15 12:14:06;;;;;;;0.60;0.60;;;;;;;10.14;90.46;97954.69;4663640;30;20068;-79
2023/10/15 12:16:40;;;;;;;0.60;0.60;;;;;;;10.08;90.81;97947.69;4659929;30;20487;-78
2023/10/15 12:19:09;;;;;;;0.60;0.60;;;;;;;10.02;91.25;97936.06;4673673;30;20094;-78
2023/10/15 12:21:42;;;;;;;0.55;0.55;;;;;;;10.05;91.43;97945.50;4703748;30;20054;-79
2023/10/15 12:24:16;;;;;;;0.68;0.68;;;;;;;10.11;91.05;97942.56;4684611;30;20454;-78
2023/10/15 12:26:46;;;;;;;0.70;0.70;;;;;;;10.22;91.00;97935.28;4726083;30;20084;-77
2023/10/15 12:29:28;;;;;;;0.60;0.60;;;;;;;10.21;90.01;97941.78;4691164;30;20072;-79
2023/10/15 12:32:02;;;;;;;0.60;0.60;;;;;;;10.28;90.21;97939.66;4696344;30;20075;-77
2023/10/15 12:34:31;;;;;;;0.60;0.60;;;;;;;10.26;89.38;97941.78;4685833;30;20054;-77
2023/10/15 12:37:07;;;;;;;0.50;0.50;;;;;;;10.18;88.14;97947.72;4681245;30;20204;-78
2023/10/15 12:39:58;;;;;;;0.70;0.70;;;;;;;10.10;88.62;97950.91;4662882;30;20065;-78
2023/10/15 12:42:27;;;;;;;0.60;0.60;;;;;;;10.05;88.85;97954.44;4680441;30;20570;-77
2023/10/15 12:44:57;;;;;;;0.68;0.68;;;;;;;10.03;89.20;97945.78;4693492;30;20057;-76
2023/10/15 12:47:26;;;;;;;0.60;0.60;;;;;;;10.01;89.28;97956.03;4677830;30;20458;-77
2023/10/15 12:49:56;;;;;;;0.60;0.60;;;;;;;10.02;89.65;97960.34;4695042;30;20066;-78
2023/10/15 12:52:31;;;;;;;0.60;0.60;;;;;;;9.99;89.54;97948.19;4682630;30;20472;-79
2023/10/15 12:55:29;;;;;;;0.60;0.60;;;;;;;10.01;90.14;97947.94;4684763;30;20584;-77